Terminal Aerodrome Forecast
Issued by NWS

Home | Current Version | Previous Version | Graphics & Text | Print | Product List | Glossary On
Versions: 1 2 3 4 5 6 7 8 9 10 11 12 13 14 15 16 17 18
377
FTUS43 KFGF 200521 AAA
TAFBJI
TAF AMD
KBJI 200521Z 2005/2106 14012KT P6SM OVC200 WS020/18045KT
     FM201200 15011KT P6SM VCSH OVC040
      TEMPO 2013/2017 3SM -RA BR OVC010
     FM201700 16009KT P6SM VCSH OVC012
     FM202200 23011KT P6SM BKN015
     FM210100 26010KT P6SM BKN040=

USA.gov is the U.S. government's official web portal to all federal, state and local government web resources and services.